sensor_id;sensor_type;location;lat;lon;timestamp;temperature;humidity
29031;DHT22;16122;50.236;11.734;2023-06-05T00:02:09;18.10;45.50
29031;DHT22;16122;50.236;11.734;2023-06-05T00:04:35;18.10;45.50
29031;DHT22;16122;50.236;11.734;2023-06-05T00:07:05;18.10;45.50
29031;DHT22;16122;50.236;11.734;2023-06-05T00:09:31;18.10;45.50
29031;DHT22;16122;50.236;11.734;2023-06-05T00:11:57;18.10;45.60
29031;DHT22;16122;50.236;11.734;2023-06-05T00:14:23;18.00;45.50
29031;DHT22;16122;50.236;11.734;2023-06-05T00:16:48;18.10;45.80
29031;DHT22;16122;50.236;11.734;2023-06-05T00:19:17;18.10;45.70
29031;DHT22;16122;50.236;11.734;2023-06-05T00:21:43;18.10;45.70
29031;DHT22;16122;50.236;11.734;2023-06-05T00:24:09;18.10;46.00
29031;DHT22;16122;50.236;11.734;2023-06-05T00:26:35;18.10;46.20
29031;DHT22;16122;50.236;11.734;2023-06-05T00:29:00;18.00;46.10
29031;DHT22;16122;50.236;11.734;2023-06-05T00:31:26;18.00;46.30
29031;DHT22;16122;50.236;11.734;2023-06-05T00:33:53;18.00;46.10
29031;DHT22;16122;50.236;11.734;2023-06-05T00:36:19;18.00;46.20
29031;DHT22;16122;50.236;11.734;2023-06-05T00:38:49;18.00;46.30
29031;DHT22;16122;50.236;11.734;2023-06-05T00:41:15;18.00;46.40
29031;DHT22;16122;50.236;11.734;2023-06-05T00:43:41;18.00;46.40
29031;DHT22;16122;50.236;11.734;2023-06-05T00:46:07;18.00;46.40
29031;DHT22;16122;50.236;11.734;2023-06-05T00:48:34;18.00;46.40
29031;DHT22;16122;50.236;11.734;2023-06-05T00:51:00;18.00;46.30
29031;DHT22;16122;50.236;11.734;2023-06-05T00:53:27;18.00;46.30
29031;DHT22;16122;50.236;11.734;2023-06-05T00:55:53;17.90;46.30
29031;DHT22;16122;50.236;11.734;2023-06-05T00:58:20;18.00;46.40
29031;DHT22;16122;50.236;11.734;2023-06-05T01:00:45;17.90;46.20
29031;DHT22;16122;50.236;11.734;2023-06-05T01:08:39;17.90;46.10
29031;DHT22;16122;50.236;11.734;2023-06-05T01:11:40;17.90;46.00
29031;DHT22;16122;50.236;11.734;2023-06-05T01:14:14;17.90;46.00
29031;DHT22;16122;50.236;11.734;2023-06-05T01:16:51;17.90;45.90
29031;DHT22;16122;50.236;11.734;2023-06-05T01:19:23;17.80;45.80
29031;DHT22;16122;50.236;11.734;2023-06-05T01:21:55;17.90;45.90
29031;DHT22;16122;50.236;11.734;2023-06-05T01:24:21;17.80;45.80
29031;DHT22;16122;50.236;11.734;2023-06-05T01:35:07;17.80;45.80
29031;DHT22;16122;50.236;11.734;2023-06-05T01:37:36;17.80;45.80
29031;DHT22;16122;50.236;11.734;2023-06-05T01:40:10;17.80;45.90
29031;DHT22;16122;50.236;11.734;2023-06-05T01:42:38;17.80;46.00
29031;DHT22;16122;50.236;11.734;2023-06-05T01:45:06;17.80;45.90
29031;DHT22;16122;50.236;11.734;2023-06-05T01:47:35;17.80;45.90
29031;DHT22;16122;50.236;11.734;2023-06-05T01:50:02;17.80;45.80
29031;DHT22;16122;50.236;11.734;2023-06-05T01:52:28;17.80;45.90
29031;DHT22;16122;50.236;11.734;2023-06-05T01:54:55;17.70;45.80
29031;DHT22;16122;50.236;11.734;2023-06-05T01:57:29;17.70;45.80
29031;DHT22;16122;50.236;11.734;2023-06-05T01:59:55;17.70;45.80
29031;DHT22;16122;50.236;11.734;2023-06-05T02:02:21;17.70;45.70
29031;DHT22;16122;50.236;11.734;2023-06-05T02:04:48;17.70;45.70
29031;DHT22;16122;50.236;11.734;2023-06-05T02:07:14;17.70;45.70
29031;DHT22;16122;50.236;11.734;2023-06-05T02:09:41;17.70;45.70
29031;DHT22;16122;50.236;11.734;2023-06-05T02:12:07;17.70;45.70
29031;DHT22;16122;50.236;11.734;2023-06-05T02:14:34;17.70;45.70
29031;DHT22;16122;50.236;11.734;2023-06-05T02:17:03;17.70;45.70
29031;DHT22;16122;50.236;11.734;2023-06-05T02:19:32;17.70;45.60
29031;DHT22;16122;50.236;11.734;2023-06-05T02:21:58;17.70;45.60
29031;DHT22;16122;50.236;11.734;2023-06-05T02:24:24;17.70;45.60
29031;DHT22;16122;50.236;11.734;2023-06-05T02:26:53;17.60;45.60
29031;DHT22;16122;50.236;11.734;2023-06-05T02:29:19;17.60;45.50
29031;DHT22;16122;50.236;11.734;2023-06-05T02:31:45;17.60;45.60
29031;DHT22;16122;50.236;11.734;2023-06-05T02:34:11;17.60;45.50
29031;DHT22;16122;50.236;11.734;2023-06-05T02:36:37;17.60;45.50
29031;DHT22;16122;50.236;11.734;2023-06-05T02:39:04;17.60;45.50
29031;DHT22;16122;50.236;11.734;2023-06-05T02:41:30;17.60;45.50
29031;DHT22;16122;50.236;11.734;2023-06-05T02:43:56;17.60;45.50
29031;DHT22;16122;50.236;11.734;2023-06-05T02:46:23;17.60;45.60
29031;DHT22;16122;50.236;11.734;2023-06-05T02:48:52;17.60;45.50
29031;DHT22;16122;50.236;11.734;2023-06-05T02:51:17;17.60;45.50
29031;DHT22;16122;50.236;11.734;2023-06-05T02:53:45;17.60;45.50
29031;DHT22;16122;50.236;11.734;2023-06-05T02:56:13;17.60;45.50
29031;DHT22;16122;50.236;11.734;2023-06-05T02:58:40;17.60;45.50
29031;DHT22;16122;50.236;11.734;2023-06-05T03:01:10;17.60;45.40
29031;DHT22;16122;50.236;11.734;2023-06-05T03:03:41;17.60;45.40
29031;DHT22;16122;50.236;11.734;2023-06-05T03:06:07;17.50;45.40
29031;DHT22;16122;50.236;11.734;2023-06-05T03:08:38;17.50;46.00
29031;DHT22;16122;50.236;11.734;2023-06-05T03:11:06;17.50;46.00
29031;DHT22;16122;50.236;11.734;2023-06-05T03:13:33;17.50;45.40
29031;DHT22;16122;50.236;11.734;2023-06-05T03:16:00;17.50;45.30
29031;DHT22;16122;50.236;11.734;2023-06-05T03:18:32;17.50;45.40
29031;DHT22;16122;50.236;11.734;2023-06-05T03:20:59;17.50;45.40
29031;DHT22;16122;50.236;11.734;2023-06-05T03:23:27;17.50;45.30
29031;DHT22;16122;50.236;11.734;2023-06-05T03:25:54;17.50;45.40
29031;DHT22;16122;50.236;11.734;2023-06-05T03:28:22;17.50;46.00
29031;DHT22;16122;50.236;11.734;2023-06-05T03:30:49;17.50;45.40
29031;DHT22;16122;50.236;11.734;2023-06-05T03:33:18;17.50;45.50
29031;DHT22;16122;50.236;11.734;2023-06-05T03:35:44;17.50;45.50
29031;DHT22;16122;50.236;11.734;2023-06-05T03:38:12;17.50;45.50
29031;DHT22;16122;50.236;11.734;2023-06-05T03:40:38;17.40;45.40
29031;DHT22;16122;50.236;11.734;2023-06-05T03:43:10;17.40;45.40
29031;DHT22;16122;50.236;11.734;2023-06-05T03:45:37;17.40;45.40
29031;DHT22;16122;50.236;11.734;2023-06-05T03:48:07;17.40;45.40
29031;DHT22;16122;50.236;11.734;2023-06-05T03:50:37;17.40;45.40
29031;DHT22;16122;50.236;11.734;2023-06-05T03:53:04;17.40;45.40
29031;DHT22;16122;50.236;11.734;2023-06-05T03:55:32;17.40;45.40
29031;DHT22;16122;50.236;11.734;2023-06-05T03:58:14;17.40;45.40
29031;DHT22;16122;50.236;11.734;2023-06-05T04:00:44;17.40;45.40
29031;DHT22;16122;50.236;11.734;2023-06-05T04:03:11;17.40;45.40
29031;DHT22;16122;50.236;11.734;2023-06-05T04:05:38;17.40;45.50
29031;DHT22;16122;50.236;11.734;2023-06-05T04:08:06;17.40;45.40
29031;DHT22;16122;50.236;11.734;2023-06-05T04:10:32;17.40;45.40
29031;DHT22;16122;50.236;11.734;2023-06-05T04:12:58;17.40;45.40
29031;DHT22;16122;50.236;11.734;2023-06-05T04:15:24;17.40;45.40
29031;DHT22;16122;50.236;11.734;2023-06-05T04:17:52;17.40;45.50
29031;DHT22;16122;50.236;11.734;2023-06-05T04:20:18;17.40;45.50
29031;DHT22;16122;50.236;11.734;2023-06-05T04:22:45;17.40;45.50
29031;DHT22;16122;50.236;11.734;2023-06-05T04:25:14;17.40;45.40
29031;DHT22;16122;50.236;11.734;2023-06-05T04:27:43;17.40;45.40
29031;DHT22;16122;50.236;11.734;2023-06-05T04:30:12;17.40;45.40
29031;DHT22;16122;50.236;11.734;2023-06-05T04:32:39;17.40;45.50
29031;DHT22;16122;50.236;11.734;2023-06-05T04:35:05;17.40;45.50
29031;DHT22;16122;50.236;11.734;2023-06-05T04:37:32;17.40;45.40
29031;DHT22;16122;50.236;11.734;2023-06-05T04:39:58;17.40;45.50
29031;DHT22;16122;50.236;11.734;2023-06-05T04:42:25;17.40;45.50
29031;DHT22;16122;50.236;11.734;2023-06-05T04:44:59;17.30;45.50
29031;DHT22;16122;50.236;11.734;2023-06-05T04:47:30;17.40;45.60
29031;DHT22;16122;50.236;11.734;2023-06-05T04:50:00;17.40;45.70
29031;DHT22;16122;50.236;11.734;2023-06-05T04:52:33;17.30;46.40
29031;DHT22;16122;50.236;11.734;2023-06-05T04:55:01;17.30;46.00
29031;DHT22;16122;50.236;11.734;2023-06-05T04:57:28;17.30;46.30
29031;DHT22;16122;50.236;11.734;2023-06-05T04:59:55;17.40;46.30
29031;DHT22;16122;50.236;11.734;2023-06-05T05:02:23;17.40;46.30
29031;DHT22;16122;50.236;11.734;2023-06-05T05:04:49;17.40;46.30
29031;DHT22;16122;50.236;11.734;2023-06-05T05:07:15;17.40;46.40
29031;DHT22;16122;50.236;11.734;2023-06-05T05:09:44;17.40;46.50
29031;DHT22;16122;50.236;11.734;2023-06-05T05:12:10;17.40;46.50
29031;DHT22;16122;50.236;11.734;2023-06-05T05:14:37;17.40;46.50
29031;DHT22;16122;50.236;11.734;2023-06-05T05:17:03;17.40;46.50
29031;DHT22;16122;50.236;11.734;2023-06-05T05:19:30;17.40;46.50
29031;DHT22;16122;50.236;11.734;2023-06-05T05:21:58;17.50;46.70
29031;DHT22;16122;50.236;11.734;2023-06-05T05:24:24;17.50;46.80
29031;DHT22;16122;50.236;11.734;2023-06-05T05:26:51;17.50;46.60
29031;DHT22;16122;50.236;11.734;2023-06-05T05:29:18;17.50;46.60
29031;DHT22;16122;50.236;11.734;2023-06-05T05:31:44;17.50;46.70
29031;DHT22;16122;50.236;11.734;2023-06-05T05:34:11;17.50;46.70
29031;DHT22;16122;50.236;11.734;2023-06-05T05:36:37;17.50;46.80
29031;DHT22;16122;50.236;11.734;2023-06-05T05:39:06;17.50;46.90
29031;DHT22;16122;50.236;11.734;2023-06-05T05:41:34;17.50;47.00
29031;DHT22;16122;50.236;11.734;2023-06-05T05:44:00;17.50;47.00
29031;DHT22;16122;50.236;11.734;2023-06-05T05:46:25;17.50;47.00
29031;DHT22;16122;50.236;11.734;2023-06-05T05:48:51;17.50;47.10
29031;DHT22;16122;50.236;11.734;2023-06-05T05:51:17;17.50;47.10
29031;DHT22;16122;50.236;11.734;2023-06-05T05:53:43;17.50;47.40
29031;DHT22;16122;50.236;11.734;2023-06-05T05:56:09;17.40;47.40
29031;DHT22;16122;50.236;11.734;2023-06-05T05:58:35;17.30;47.70
29031;DHT22;16122;50.236;11.734;2023-06-05T06:01:01;17.20;47.90
29031;DHT22;16122;50.236;11.734;2023-06-05T06:03:26;17.30;47.90
29031;DHT22;16122;50.236;11.734;2023-06-05T06:05:53;17.40;47.70
29031;DHT22;16122;50.236;11.734;2023-06-05T06:08:18;17.40;47.60
29031;DHT22;16122;50.236;11.734;2023-06-05T06:10:45;17.50;47.60
29031;DHT22;16122;50.236;11.734;2023-06-05T06:13:12;17.40;47.30
29031;DHT22;16122;50.236;11.734;2023-06-05T06:15:38;17.40;47.40
29031;DHT22;16122;50.236;11.734;2023-06-05T06:18:05;17.50;47.20
29031;DHT22;16122;50.236;11.734;2023-06-05T06:20:31;17.50;47.10
29031;DHT22;16122;50.236;11.734;2023-06-05T06:22:59;17.50;47.00
29031;DHT22;16122;50.236;11.734;2023-06-05T06:25:25;17.50;47.00
29031;DHT22;16122;50.236;11.734;2023-06-05T06:27:55;17.50;47.10
29031;DHT22;16122;50.236;11.734;2023-06-05T06:30:21;17.40;47.10
29031;DHT22;16122;50.236;11.734;2023-06-05T06:32:48;17.50;47.10
29031;DHT22;16122;50.236;11.734;2023-06-05T06:35:14;17.50;47.10
29031;DHT22;16122;50.236;11.734;2023-06-05T06:37:42;17.60;46.90
29031;DHT22;16122;50.236;11.734;2023-06-05T06:40:08;17.50;46.80
29031;DHT22;16122;50.236;11.734;2023-06-05T06:42:35;17.60;46.80
29031;DHT22;16122;50.236;11.734;2023-06-05T06:45:27;17.60;46.90
29031;DHT22;16122;50.236;11.734;2023-06-05T06:47:53;17.60;47.10
29031;DHT22;16122;50.236;11.734;2023-06-05T06:50:18;17.60;47.20
29031;DHT22;16122;50.236;11.734;2023-06-05T06:52:44;17.60;47.30
29031;DHT22;16122;50.236;11.734;2023-06-05T06:55:10;17.60;47.40
29031;DHT22;16122;50.236;11.734;2023-06-05T06:57:37;17.60;47.40
29031;DHT22;16122;50.236;11.734;2023-06-05T07:00:03;17.60;47.60
29031;DHT22;16122;50.236;11.734;2023-06-05T07:02:33;17.60;47.90
29031;DHT22;16122;50.236;11.734;2023-06-05T07:04:59;17.60;48.10
29031;DHT22;16122;50.236;11.734;2023-06-05T07:07:25;17.60;48.00
29031;DHT22;16122;50.236;11.734;2023-06-05T07:09:51;17.60;47.80
29031;DHT22;16122;50.236;11.734;2023-06-05T07:12:18;17.60;47.70
29031;DHT22;16122;50.236;11.734;2023-06-05T07:14:45;17.70;47.90
29031;DHT22;16122;50.236;11.734;2023-06-05T07:17:12;17.70;47.80
29031;DHT22;16122;50.236;11.734;2023-06-05T07:19:38;17.70;47.90
29031;DHT22;16122;50.236;11.734;2023-06-05T07:22:05;17.70;47.90
29031;DHT22;16122;50.236;11.734;2023-06-05T07:24:32;17.70;47.80
29031;DHT22;16122;50.236;11.734;2023-06-05T07:27:02;17.70;47.90
29031;DHT22;16122;50.236;11.734;2023-06-05T07:29:28;17.60;47.90
29031;DHT22;16122;50.236;11.734;2023-06-05T07:31:55;17.60;48.20
29031;DHT22;16122;50.236;11.734;2023-06-05T07:34:22;17.70;48.10
29031;DHT22;16122;50.236;11.734;2023-06-05T07:36:50;17.70;48.10
29031;DHT22;16122;50.236;11.734;2023-06-05T07:39:19;17.70;48.20
29031;DHT22;16122;50.236;11.734;2023-06-05T07:41:44;17.60;48.10
29031;DHT22;16122;50.236;11.734;2023-06-05T07:44:15;17.70;48.20
29031;DHT22;16122;50.236;11.734;2023-06-05T07:46:45;17.70;48.30
29031;DHT22;16122;50.236;11.734;2023-06-05T07:49:11;17.70;48.40
29031;DHT22;16122;50.236;11.734;2023-06-05T07:51:38;17.70;48.50
29031;DHT22;16122;50.236;11.734;2023-06-05T07:54:09;17.70;48.50
29031;DHT22;16122;50.236;11.734;2023-06-05T07:56:36;17.70;48.50
29031;DHT22;16122;50.236;11.734;2023-06-05T07:59:03;17.70;48.60
29031;DHT22;16122;50.236;11.734;2023-06-05T08:01:33;17.70;48.60
29031;DHT22;16122;50.236;11.734;2023-06-05T08:04:06;17.70;48.60
29031;DHT22;16122;50.236;11.734;2023-06-05T08:06:33;17.70;48.70
29031;DHT22;16122;50.236;11.734;2023-06-05T08:08:59;17.70;48.70
29031;DHT22;16122;50.236;11.734;2023-06-05T08:11:25;17.70;48.80
29031;DHT22;16122;50.236;11.734;2023-06-05T08:13:52;17.70;48.90
29031;DHT22;16122;50.236;11.734;2023-06-05T08:16:18;17.70;48.90
29031;DHT22;16122;50.236;11.734;2023-06-05T08:18:44;17.70;49.00
29031;DHT22;16122;50.236;11.734;2023-06-05T08:21:10;17.70;49.20
29031;DHT22;16122;50.236;11.734;2023-06-05T08:23:36;17.70;49.10
29031;DHT22;16122;50.236;11.734;2023-06-05T08:26:02;17.70;49.30
29031;DHT22;16122;50.236;11.734;2023-06-05T08:28:37;17.70;49.40
29031;DHT22;16122;50.236;11.734;2023-06-05T08:31:03;17.70;49.50
29031;DHT22;16122;50.236;11.734;2023-06-05T08:33:35;17.70;49.50
29031;DHT22;16122;50.236;11.734;2023-06-05T08:36:01;17.70;49.50
29031;DHT22;16122;50.236;11.734;2023-06-05T08:38:32;17.70;49.50
29031;DHT22;16122;50.236;11.734;2023-06-05T08:41:06;17.70;49.50
29031;DHT22;16122;50.236;11.734;2023-06-05T08:43:39;17.70;49.50
29031;DHT22;16122;50.236;11.734;2023-06-05T08:46:08;17.80;49.50
29031;DHT22;16122;50.236;11.734;2023-06-05T08:48:44;17.80;49.60
29031;DHT22;16122;50.236;11.734;2023-06-05T08:51:15;17.80;49.70
29031;DHT22;16122;50.236;11.734;2023-06-05T08:53:45;17.80;49.80
29031;DHT22;16122;50.236;11.734;2023-06-05T08:56:14;17.80;49.90
29031;DHT22;16122;50.236;11.734;2023-06-05T08:58:41;17.80;50.00
29031;DHT22;16122;50.236;11.734;2023-06-05T09:01:09;17.80;50.00
29031;DHT22;16122;50.236;11.734;2023-06-05T09:03:35;17.80;50.10
29031;DHT22;16122;50.236;11.734;2023-06-05T09:06:01;17.80;50.00
29031;DHT22;16122;50.236;11.734;2023-06-05T09:08:30;17.80;50.10
29031;DHT22;16122;50.236;11.734;2023-06-05T09:11:23;17.80;50.10
29031;DHT22;16122;50.236;11.734;2023-06-05T09:13:49;17.80;50.10
29031;DHT22;16122;50.236;11.734;2023-06-05T09:16:19;17.80;50.20
29031;DHT22;16122;50.236;11.734;2023-06-05T09:18:56;17.80;50.20
29031;DHT22;16122;50.236;11.734;2023-06-05T09:21:24;17.80;50.30
29031;DHT22;16122;50.236;11.734;2023-06-05T09:29:28;17.80;50.60
29031;DHT22;16122;50.236;11.734;2023-06-05T09:31:58;17.80;50.80
29031;DHT22;16122;50.236;11.734;2023-06-05T09:34:31;17.80;50.70
29031;DHT22;16122;50.236;11.734;2023-06-05T09:37:05;17.80;50.70
29031;DHT22;16122;50.236;11.734;2023-06-05T09:39:33;17.80;50.70
29031;DHT22;16122;50.236;11.734;2023-06-05T09:41:59;17.80;50.80
29031;DHT22;16122;50.236;11.734;2023-06-05T09:44:26;17.80;50.80
29031;DHT22;16122;50.236;11.734;2023-06-05T09:49:32;17.90;51.10
29031;DHT22;16122;50.236;11.734;2023-06-05T09:52:00;17.90;51.50
29031;DHT22;16122;50.236;11.734;2023-06-05T09:54:28;17.90;51.70
29031;DHT22;16122;50.236;11.734;2023-06-05T09:57:03;17.90;51.80
29031;DHT22;16122;50.236;11.734;2023-06-05T09:59:34;17.90;51.90
29031;DHT22;16122;50.236;11.734;2023-06-05T10:02:05;17.90;51.90
29031;DHT22;16122;50.236;11.734;2023-06-05T10:04:48;17.90;52.00
29031;DHT22;16122;50.236;11.734;2023-06-05T10:07:15;17.90;52.10
29031;DHT22;16122;50.236;11.734;2023-06-05T10:09:41;17.90;52.20
29031;DHT22;16122;50.236;11.734;2023-06-05T10:12:08;17.90;52.20
29031;DHT22;16122;50.236;11.734;2023-06-05T10:14:41;17.90;52.50
29031;DHT22;16122;50.236;11.734;2023-06-05T10:17:07;17.90;52.90
29031;DHT22;16122;50.236;11.734;2023-06-05T10:19:33;17.90;52.80
29031;DHT22;16122;50.236;11.734;2023-06-05T10:21:59;18.00;53.00
29031;DHT22;16122;50.236;11.734;2023-06-05T10:24:35;17.90;53.10
29031;DHT22;16122;50.236;11.734;2023-06-05T10:40:37;18.00;53.70
29031;DHT22;16122;50.236;11.734;2023-06-05T10:49:07;18.00;53.90
29031;DHT22;16122;50.236;11.734;2023-06-05T10:59:22;18.00;54.00
29031;DHT22;16122;50.236;11.734;2023-06-05T11:07:25;18.00;54.20
29031;DHT22;16122;50.236;11.734;2023-06-05T11:10:21;18.00;54.20
29031;DHT22;16122;50.236;11.734;2023-06-05T11:15:37;18.00;54.30
29031;DHT22;16122;50.236;11.734;2023-06-05T11:18:32;18.00;54.30
29031;DHT22;16122;50.236;11.734;2023-06-05T11:20:59;18.00;54.20
29031;DHT22;16122;50.236;11.734;2023-06-05T11:23:26;18.00;54.20
29031;DHT22;16122;50.236;11.734;2023-06-05T11:25:55;18.00;54.30
29031;DHT22;16122;50.236;11.734;2023-06-05T11:28:43;18.00;54.20
29031;DHT22;16122;50.236;11.734;2023-06-05T11:31:10;18.10;54.30
29031;DHT22;16122;50.236;11.734;2023-06-05T11:33:36;18.10;54.30
29031;DHT22;16122;50.236;11.734;2023-06-05T11:36:04;18.10;54.30
29031;DHT22;16122;50.236;11.734;2023-06-05T11:38:31;18.10;54.30
29031;DHT22;16122;50.236;11.734;2023-06-05T11:40:57;18.10;54.30
29031;DHT22;16122;50.236;11.734;2023-06-05T11:43:23;18.10;54.30
29031;DHT22;16122;50.236;11.734;2023-06-05T11:45:51;18.10;54.30
29031;DHT22;16122;50.236;11.734;2023-06-05T11:48:17;18.10;54.30
29031;DHT22;16122;50.236;11.734;2023-06-05T11:53:21;18.10;54.50
29031;DHT22;16122;50.236;11.734;2023-06-05T11:55:47;18.10;54.50
29031;DHT22;16122;50.236;11.734;2023-06-05T11:58:26;18.10;54.50
29031;DHT22;16122;50.236;11.734;2023-06-05T12:01:12;18.10;54.40
29031;DHT22;16122;50.236;11.734;2023-06-05T12:03:41;18.10;54.30
29031;DHT22;16122;50.236;11.734;2023-06-05T12:06:08;18.10;54.50
29031;DHT22;16122;50.236;11.734;2023-06-05T12:08:34;18.20;54.50
29031;DHT22;16122;50.236;11.734;2023-06-05T12:11:02;18.10;54.50
29031;DHT22;16122;50.236;11.734;2023-06-05T12:13:54;18.10;54.50
29031;DHT22;16122;50.236;11.734;2023-06-05T12:16:33;18.10;54.60
29031;DHT22;16122;50.236;11.734;2023-06-05T12:19:00;18.10;54.60
29031;DHT22;16122;50.236;11.734;2023-06-05T12:21:27;18.10;54.50
29031;DHT22;16122;50.236;11.734;2023-06-05T12:24:06;18.10;54.50
29031;DHT22;16122;50.236;11.734;2023-06-05T12:29:25;18.10;54.60
29031;DHT22;16122;50.236;11.734;2023-06-05T12:31:54;18.20;54.70
29031;DHT22;16122;50.236;11.734;2023-06-05T12:37:08;18.20;54.60
29031;DHT22;16122;50.236;11.734;2023-06-05T12:39:34;18.20;54.60
29031;DHT22;16122;50.236;11.734;2023-06-05T12:42:01;18.20;54.60
29031;DHT22;16122;50.236;11.734;2023-06-05T12:44:26;18.20;54.70
29031;DHT22;16122;50.236;11.734;2023-06-05T12:46:52;18.20;54.70
29031;DHT22;16122;50.236;11.734;2023-06-05T12:49:18;18.20;54.80
29031;DHT22;16122;50.236;11.734;2023-06-05T12:51:44;18.20;54.80
29031;DHT22;16122;50.236;11.734;2023-06-05T12:54:10;18.20;54.70
29031;DHT22;16122;50.236;11.734;2023-06-05T12:56:36;18.20;54.90
29031;DHT22;16122;50.236;11.734;2023-06-05T12:59:02;18.20;55.10
29031;DHT22;16122;50.236;11.734;2023-06-05T13:01:28;18.20;55.30
29031;DHT22;16122;50.236;11.734;2023-06-05T13:03:57;18.20;55.40
29031;DHT22;16122;50.236;11.734;2023-06-05T13:06:23;18.20;55.60
29031;DHT22;16122;50.236;11.734;2023-06-05T13:08:49;18.20;55.60
29031;DHT22;16122;50.236;11.734;2023-06-05T13:11:17;18.20;55.50
29031;DHT22;16122;50.236;11.734;2023-06-05T13:13:43;18.20;55.60
29031;DHT22;16122;50.236;11.734;2023-06-05T13:16:10;18.20;55.40
29031;DHT22;16122;50.236;11.734;2023-06-05T13:18:36;18.20;55.30
29031;DHT22;16122;50.236;11.734;2023-06-05T13:21:05;18.20;55.30
29031;DHT22;16122;50.236;11.734;2023-06-05T13:23:31;18.20;55.30
29031;DHT22;16122;50.236;11.734;2023-06-05T13:25:58;18.20;55.30
29031;DHT22;16122;50.236;11.734;2023-06-05T13:28:24;18.30;55.50
29031;DHT22;16122;50.236;11.734;2023-06-05T13:30:50;18.30;55.50
29031;DHT22;16122;50.236;11.734;2023-06-05T13:33:17;18.20;55.50
29031;DHT22;16122;50.236;11.734;2023-06-05T13:35:44;18.30;55.60
29031;DHT22;16122;50.236;11.734;2023-06-05T13:38:10;18.20;55.60
29031;DHT22;16122;50.236;11.734;2023-06-05T13:40:35;18.30;55.70
29031;DHT22;16122;50.236;11.734;2023-06-05T13:43:01;18.30;55.60
29031;DHT22;16122;50.236;11.734;2023-06-05T13:45:27;18.30;55.60
29031;DHT22;16122;50.236;11.734;2023-06-05T13:47:53;18.30;55.60
29031;DHT22;16122;50.236;11.734;2023-06-05T13:50:19;18.30;55.60
29031;DHT22;16122;50.236;11.734;2023-06-05T13:52:46;18.30;55.50
29031;DHT22;16122;50.236;11.734;2023-06-05T13:55:12;18.30;55.60
29031;DHT22;16122;50.236;11.734;2023-06-05T13:57:38;18.30;55.60
29031;DHT22;16122;50.236;11.734;2023-06-05T14:00:04;18.30;55.70
29031;DHT22;16122;50.236;11.734;2023-06-05T14:02:31;18.30;55.80
29031;DHT22;16122;50.236;11.734;2023-06-05T14:04:58;18.30;55.80
29031;DHT22;16122;50.236;11.734;2023-06-05T14:07:23;18.30;55.80
29031;DHT22;16122;50.236;11.734;2023-06-05T14:09:49;18.30;55.70
29031;DHT22;16122;50.236;11.734;2023-06-05T14:12:15;18.30;55.70
29031;DHT22;16122;50.236;11.734;2023-06-05T14:14:43;18.30;55.80
29031;DHT22;16122;50.236;11.734;2023-06-05T14:17:09;18.30;55.80
29031;DHT22;16122;50.236;11.734;2023-06-05T14:19:35;18.30;55.80
29031;DHT22;16122;50.236;11.734;2023-06-05T14:22:01;18.30;55.80
29031;DHT22;16122;50.236;11.734;2023-06-05T14:24:27;18.30;55.60
29031;DHT22;16122;50.236;11.734;2023-06-05T14:26:54;18.30;55.70
29031;DHT22;16122;50.236;11.734;2023-06-05T14:29:22;18.30;55.80
29031;DHT22;16122;50.236;11.734;2023-06-05T14:31:48;18.40;55.90
29031;DHT22;16122;50.236;11.734;2023-06-05T14:34:14;18.30;55.80
29031;DHT22;16122;50.236;11.734;2023-06-05T14:36:41;18.40;56.00
29031;DHT22;16122;50.236;11.734;2023-06-05T14:39:07;18.40;56.00
29031;DHT22;16122;50.236;11.734;2023-06-05T14:41:33;18.40;56.00
29031;DHT22;16122;50.236;11.734;2023-06-05T14:43:59;18.40;56.00
29031;DHT22;16122;50.236;11.734;2023-06-05T14:46:25;18.40;56.10
29031;DHT22;16122;50.236;11.734;2023-06-05T14:48:51;18.40;56.00
29031;DHT22;16122;50.236;11.734;2023-06-05T14:51:17;18.40;56.00
29031;DHT22;16122;50.236;11.734;2023-06-05T14:53:43;18.40;56.00
29031;DHT22;16122;50.236;11.734;2023-06-05T14:56:09;18.40;56.10
29031;DHT22;16122;50.236;11.734;2023-06-05T14:58:35;18.40;56.00
29031;DHT22;16122;50.236;11.734;2023-06-05T15:01:01;18.40;56.00
29031;DHT22;16122;50.236;11.734;2023-06-05T15:03:27;18.40;56.00
29031;DHT22;16122;50.236;11.734;2023-06-05T15:05:53;18.40;56.10
29031;DHT22;16122;50.236;11.734;2023-06-05T15:08:19;18.40;56.00
29031;DHT22;16122;50.236;11.734;2023-06-05T15:10:47;18.40;56.00
29031;DHT22;16122;50.236;11.734;2023-06-05T15:13:13;18.40;56.00
29031;DHT22;16122;50.236;11.734;2023-06-05T15:15:38;18.40;56.00
29031;DHT22;16122;50.236;11.734;2023-06-05T15:18:04;18.40;56.00
29031;DHT22;16122;50.236;11.734;2023-06-05T15:20:30;18.40;55.90
29031;DHT22;16122;50.236;11.734;2023-06-05T15:22:56;18.40;55.90
29031;DHT22;16122;50.236;11.734;2023-06-05T15:25:22;18.40;55.90
29031;DHT22;16122;50.236;11.734;2023-06-05T15:27:51;18.40;55.80
29031;DHT22;16122;50.236;11.734;2023-06-05T15:30:17;18.40;55.80
29031;DHT22;16122;50.236;11.734;2023-06-05T15:32:43;18.40;56.40
29031;DHT22;16122;50.236;11.734;2023-06-05T15:35:10;18.40;55.80
29031;DHT22;16122;50.236;11.734;2023-06-05T15:37:36;18.50;55.90
29031;DHT22;16122;50.236;11.734;2023-06-05T15:40:02;18.50;55.90
29031;DHT22;16122;50.236;11.734;2023-06-05T15:42:35;18.50;55.90
29031;DHT22;16122;50.236;11.734;2023-06-05T15:45:13;18.50;55.90
29031;DHT22;16122;50.236;11.734;2023-06-05T15:47:41;18.50;55.80
29031;DHT22;16122;50.236;11.734;2023-06-05T15:50:07;18.50;55.80
29031;DHT22;16122;50.236;11.734;2023-06-05T15:52:35;18.50;55.80
29031;DHT22;16122;50.236;11.734;2023-06-05T15:55:01;18.50;55.80
29031;DHT22;16122;50.236;11.734;2023-06-05T15:57:28;18.50;55.80
29031;DHT22;16122;50.236;11.734;2023-06-05T15:59:54;18.50;55.80
29031;DHT22;16122;50.236;11.734;2023-06-05T16:02:20;18.50;55.60
29031;DHT22;16122;50.236;11.734;2023-06-05T16:04:49;18.50;55.60
29031;DHT22;16122;50.236;11.734;2023-06-05T16:07:15;18.50;55.50
29031;DHT22;16122;50.236;11.734;2023-06-05T16:09:44;18.50;55.40
29031;DHT22;16122;50.236;11.734;2023-06-05T16:12:10;18.50;55.40
29031;DHT22;16122;50.236;11.734;2023-06-05T16:14:36;18.50;55.50
29031;DHT22;16122;50.236;11.734;2023-06-05T16:17:03;18.50;55.60
29031;DHT22;16122;50.236;11.734;2023-06-05T16:19:30;18.50;55.60
29031;DHT22;16122;50.236;11.734;2023-06-05T16:21:56;18.50;55.60
29031;DHT22;16122;50.236;11.734;2023-06-05T16:24:24;18.50;55.60
29031;DHT22;16122;50.236;11.734;2023-06-05T16:26:50;18.50;55.50